Time;durP1;ratioP1;P1;durP2;ratioP2;P2;SDS_P1;SDS_P2;PMS_P1;PMS_P2;Temp;Humidity;BMP_temperature;BMP_pressure;BME280_temperature;BME280_humidity;BME280_pressure;Samples;Min_cycle;Max_cycle;Signal;HPM_P1;HPM_P2
2021/06/26 00:00:53;;;;;;;5.93;4.40;;;18.80;65.10;;;;;;5007896;28;20028;-72
2021/06/26 00:03:21;;;;;;;5.10;4.60;;;18.80;65.60;;;;;;5026492;28;20088;-72
2021/06/26 00:05:47;;;;;;;6.53;3.55;;;18.80;65.90;;;;;;5008236;28;20026;-73
2021/06/26 00:08:13;;;;;;;5.55;4.65;;;18.70;65.70;;;;;;5025657;28;20347;-73
2021/06/26 00:10:41;;;;;;;4.72;4.00;;;18.70;66.30;;;;;;5026177;28;20680;-73
2021/06/26 00:13:06;;;;;;;4.88;4.15;;;18.70;65.70;;;;;;5024445;28;20033;-72
2021/06/26 00:15:32;;;;;;;4.57;3.95;;;18.70;65.80;;;;;;5025440;28;20057;-73
2021/06/26 00:17:58;;;;;;;4.82;4.22;;;18.70;66.00;;;;;;5024839;28;20112;-73
2021/06/26 00:20:24;;;;;;;4.75;3.78;;;18.70;66.00;;;;;;5024552;28;20109;-72
2021/06/26 00:22:49;;;;;;;7.60;4.25;;;18.70;65.80;;;;;;5025263;28;20111;-73
2021/06/26 00:25:15;;;;;;;5.60;4.40;;;18.70;66.30;;;;;;5006930;28;20026;-72
2021/06/26 00:27:41;;;;;;;5.80;4.28;;;18.70;66.60;;;;;;5008032;28;20026;-73
2021/06/26 00:30:07;;;;;;;4.70;4.10;;;18.70;66.60;;;;;;5022775;28;20033;-73
2021/06/26 00:32:33;;;;;;;5.18;3.70;;;18.60;66.90;;;;;;5024643;28;20043;-73
2021/06/26 00:34:59;;;;;;;5.43;4.47;;;18.60;67.10;;;;;;5025923;28;20033;-73
2021/06/26 00:37:25;;;;;;;6.03;3.65;;;18.60;67.60;;;;;;5024589;28;20075;-72
2021/06/26 00:39:50;;;;;;;5.20;4.05;;;18.50;67.90;;;;;;5025271;28;20056;-73
2021/06/26 00:42:16;;;;;;;5.60;4.18;;;18.50;68.10;;;;;;5024341;28;20052;-73
2021/06/26 00:44:42;;;;;;;4.55;3.75;;;18.40;68.20;;;;;;5023086;28;20538;-73
2021/06/26 00:47:12;;;;;;;4.55;4.03;;;18.40;68.40;;;;;;5023224;28;20402;-73
2021/06/26 00:49:38;;;;;;;5.47;4.18;;;18.40;69.00;;;;;;5024388;28;20411;-73
2021/06/26 00:52:04;;;;;;;6.50;4.85;;;18.40;69.20;;;;;;5022413;28;20040;-73
2021/06/26 00:54:30;;;;;;;6.53;4.68;;;18.40;69.10;;;;;;5023249;28;20025;-73
2021/06/26 00:56:57;;;;;;;5.03;4.18;;;18.40;69.70;;;;;;5007031;28;20042;-73
2021/06/26 00:59:23;;;;;;;6.20;4.60;;;18.30;69.20;;;;;;5007723;28;20044;-73
2021/06/26 01:01:49;;;;;;;5.72;4.50;;;18.30;69.60;;;;;;5023534;28;20417;-73
2021/06/26 01:04:15;;;;;;;5.68;4.15;;;18.30;69.70;;;;;;5023707;28;20152;-73
2021/06/26 01:06:40;;;;;;;5.82;4.63;;;18.30;69.90;;;;;;5023628;28;20081;-73
2021/06/26 01:09:06;;;;;;;7.68;5.00;;;18.20;70.10;;;;;;5022990;28;20396;-73
2021/06/26 01:11:33;;;;;;;7.03;4.93;;;18.20;70.40;;;;;;5024619;28;20391;-73
2021/06/26 01:13:59;;;;;;;6.28;4.55;;;18.20;70.80;;;;;;5027034;28;20488;-73
2021/06/26 01:16:25;;;;;;;6.03;4.55;;;18.20;71.10;;;;;;5024923;28;20511;-72
2021/06/26 01:18:51;;;;;;;5.78;4.70;;;18.20;71.50;;;;;;5022339;28;20039;-73
2021/06/26 01:21:17;;;;;;;6.00;4.70;;;18.10;71.70;;;;;;5024314;28;20519;-73
2021/06/26 01:23:49;;;;;;;5.70;4.90;;;18.10;72.00;;;;;;5024450;28;20033;-72
2021/06/26 01:26:16;;;;;;;6.25;5.03;;;18.10;72.30;;;;;;5024690;28;20499;-73
2021/06/26 01:28:42;;;;;;;6.32;5.28;;;18.10;72.60;;;;;;5024787;28;20095;-73
2021/06/26 01:31:08;;;;;;;6.20;4.60;;;18.10;72.70;;;;;;5024999;28;20487;-72
2021/06/26 01:33:34;;;;;;;6.43;5.07;;;18.00;72.90;;;;;;5009841;28;20057;-73
2021/06/26 01:36:00;;;;;;;5.57;4.90;;;18.00;73.00;;;;;;5006471;28;20068;-72
2021/06/26 01:38:27;;;;;;;6.75;5.13;;;18.00;73.20;;;;;;5023603;28;20127;-73
2021/06/26 01:40:52;;;;;;;7.65;5.00;;;18.00;73.80;;;;;;5005794;28;20171;-73
2021/06/26 01:43:18;;;;;;;8.20;5.57;;;18.00;74.00;;;;;;5023537;28;20045;-73
2021/06/26 01:45:44;;;;;;;6.70;5.25;;;18.00;73.80;;;;;;5007359;28;20506;-73
2021/06/26 01:48:09;;;;;;;5.60;5.00;;;17.90;73.90;;;;;;5022889;28;20026;-73
2021/06/26 01:50:35;;;;;;;6.03;5.30;;;17.90;74.20;;;;;;5023290;28;20096;-73
2021/06/26 01:53:01;;;;;;;6.88;5.40;;;17.80;74.20;;;;;;5024876;28;20029;-73
2021/06/26 01:55:28;;;;;;;7.00;5.90;;;17.80;74.50;;;;;;5022215;28;20040;-72
2021/06/26 01:57:54;;;;;;;7.63;5.28;;;17.80;74.90;;;;;;5024975;28;20036;-73
2021/06/26 02:00:21;;;;;;;6.90;5.75;;;17.80;75.10;;;;;;5024147;28;20099;-72
2021/06/26 02:02:47;;;;;;;7.25;6.00;;;17.80;74.90;;;;;;5024661;28;20057;-72
2021/06/26 02:05:17;;;;;;;6.82;5.90;;;17.80;75.20;;;;;;5023593;28;20061;-72
2021/06/26 02:07:43;;;;;;;9.50;6.10;;;17.80;75.40;;;;;;5021997;28;20029;-73
2021/06/26 02:10:10;;;;;;;8.32;5.68;;;17.80;75.50;;;;;;5024970;28;20037;-73
2021/06/26 02:12:36;;;;;;;6.97;5.45;;;17.80;75.90;;;;;;5019830;28;20140;-73
2021/06/26 02:15:02;;;;;;;7.75;6.40;;;17.80;75.90;;;;;;5023054;28;20112;-73
2021/06/26 02:17:29;;;;;;;7.88;6.00;;;17.80;75.90;;;;;;5006758;28;20033;-73
2021/06/26 02:19:54;;;;;;;8.63;6.40;;;17.70;75.70;;;;;;5020612;28;20029;-73
2021/06/26 02:22:20;;;;;;;6.53;5.60;;;17.70;75.80;;;;;;5021863;28;20548;-73
2021/06/26 02:24:46;;;;;;;6.57;5.68;;;17.70;76.00;;;;;;5022214;28;20041;-73
2021/06/26 02:27:12;;;;;;;6.88;6.00;;;17.70;76.30;;;;;;5019376;28;20571;-73
2021/06/26 02:29:37;;;;;;;6.63;5.93;;;17.70;76.50;;;;;;5022560;28;20030;-73
2021/06/26 02:32:05;;;;;;;8.65;6.35;;;17.70;77.00;;;;;;5019697;28;20061;-72
2021/06/26 02:34:31;;;;;;;7.13;5.78;;;17.70;77.20;;;;;;5020540;28;20129;-73
2021/06/26 02:36:56;;;;;;;8.35;6.50;;;17.70;77.20;;;;;;5021814;28;20531;-73
2021/06/26 02:39:22;;;;;;;10.52;6.70;;;17.70;77.40;;;;;;5021808;28;20191;-73
2021/06/26 02:41:48;;;;;;;6.78;5.93;;;17.70;77.40;;;;;;5022303;28;20064;-72
2021/06/26 02:44:14;;;;;;;8.05;5.78;;;17.70;77.30;;;;;;5020910;28;20029;-73
2021/06/26 02:46:39;;;;;;;6.28;5.68;;;17.70;77.60;;;;;;5023100;28;20455;-73
2021/06/26 02:49:05;;;;;;;7.85;6.35;;;17.70;77.70;;;;;;5023706;28;20033;-73
2021/06/26 02:51:31;;;;;;;9.05;6.03;;;17.70;77.60;;;;;;5023342;28;20051;-72
2021/06/26 02:53:57;;;;;;;7.80;6.45;;;17.70;77.40;;;;;;5022505;28;20065;-73
2021/06/26 02:56:23;;;;;;;7.20;6.50;;;17.80;77.80;;;;;;5004248;28;20030;-72
2021/06/26 02:58:48;;;;;;;8.88;7.28;;;17.70;78.00;;;;;;5022074;28;20029;-72
2021/06/26 03:01:14;;;;;;;8.20;7.30;;;17.70;78.00;;;;;;5022100;28;20495;-73
2021/06/26 03:03:40;;;;;;;8.23;6.43;;;17.80;77.90;;;;;;5023801;28;20029;-72
2021/06/26 03:06:06;;;;;;;9.20;6.80;;;17.80;77.60;;;;;;5003932;28;20127;-72
2021/06/26 03:08:31;;;;;;;8.35;6.85;;;17.80;77.50;;;;;;5022521;28;20026;-72
2021/06/26 03:10:57;;;;;;;7.10;6.40;;;17.80;77.50;;;;;;5026987;28;20084;-72
2021/06/26 03:13:23;;;;;;;7.90;6.35;;;17.80;77.80;;;;;;5011755;28;20022;-73
2021/06/26 03:15:49;;;;;;;7.07;6.38;;;17.80;78.10;;;;;;5028229;28;20022;-72
2021/06/26 03:18:17;;;;;;;8.68;6.60;;;17.80;78.10;;;;;;5025943;28;20033;-72
2021/06/26 03:20:43;;;;;;;8.05;6.35;;;17.80;78.20;;;;;;5024565;28;20037;-71
2021/06/26 03:23:09;;;;;;;6.75;6.07;;;17.80;78.40;;;;;;5027813;28;20037;-71
2021/06/26 03:25:34;;;;;;;10.43;6.93;;;17.80;78.50;;;;;;5011596;28;20055;-72
2021/06/26 03:28:01;;;;;;;6.63;5.85;;;17.80;78.70;;;;;;5006959;28;20029;-72
2021/06/26 03:30:26;;;;;;;11.15;7.10;;;17.80;78.60;;;;;;5027051;28;20080;-72
2021/06/26 03:32:52;;;;;;;7.70;6.53;;;17.80;79.10;;;;;;5025211;28;20026;-72
2021/06/26 03:35:18;;;;;;;7.00;6.30;;;17.80;79.20;;;;;;5027366;28;20029;-72
2021/06/26 03:37:44;;;;;;;7.03;6.13;;;17.80;79.60;;;;;;5026242;28;20026;-72
2021/06/26 03:40:10;;;;;;;7.80;6.78;;;17.80;79.60;;;;;;5027472;28;20029;-72
2021/06/26 03:42:36;;;;;;;7.72;6.93;;;17.80;79.60;;;;;;5024157;28;20056;-72
2021/06/26 03:45:03;;;;;;;10.63;6.80;;;17.80;80.00;;;;;;5026534;28;20392;-72
2021/06/26 03:47:29;;;;;;;7.40;6.00;;;17.80;79.70;;;;;;5006192;28;20468;-72
2021/06/26 03:49:55;;;;;;;7.30;6.50;;;17.80;80.20;;;;;;5026339;28;20114;-72
2021/06/26 03:52:21;;;;;;;7.13;6.15;;;17.80;80.00;;;;;;5026300;28;20064;-72
2021/06/26 03:54:46;;;;;;;7.78;6.47;;;17.80;80.40;;;;;;5025352;28;20525;-72
2021/06/26 03:57:12;;;;;;;7.63;6.30;;;17.80;80.60;;;;;;5026805;28;20038;-72
2021/06/26 03:59:38;;;;;;;8.05;5.85;;;17.80;80.40;;;;;;5024980;28;20032;-72
2021/06/26 04:02:06;;;;;;;7.20;6.50;;;17.80;80.70;;;;;;5029125;28;20460;-72
2021/06/26 04:04:34;;;;;;;6.93;6.22;;;17.90;80.90;;;;;;5025344;28;20114;-72
2021/06/26 04:07:00;;;;;;;7.25;6.15;;;17.90;81.10;;;;;;5027405;28;20031;-73
2021/06/26 04:09:26;;;;;;;7.28;6.10;;;17.90;81.00;;;;;;5027640;28;20482;-72
2021/06/26 04:11:51;;;;;;;8.30;6.78;;;17.90;80.80;;;;;;5030018;28;20026;-72
2021/06/26 04:14:17;;;;;;;7.13;6.18;;;17.90;80.40;;;;;;5025533;28;20026;-72
2021/06/26 04:16:43;;;;;;;8.50;7.30;;;17.90;80.10;;;;;;5024796;28;20033;-73
2021/06/26 04:19:08;;;;;;;7.63;6.65;;;17.90;80.90;;;;;;5025936;28;20041;-72
2021/06/26 04:21:34;;;;;;;8.73;7.72;;;18.00;80.60;;;;;;5028766;28;20053;-73
2021/06/26 04:24:00;;;;;;;9.70;6.90;;;18.00;80.40;;;;;;5026439;28;20395;-73
2021/06/26 04:26:25;;;;;;;9.75;7.20;;;17.90;80.50;;;;;;5025979;28;20045;-74
2021/06/26 04:28:51;;;;;;;7.93;7.13;;;17.90;80.90;;;;;;5023841;28;20041;-73
2021/06/26 04:31:17;;;;;;;8.45;7.28;;;17.90;81.00;;;;;;5021082;28;20037;-72
2021/06/26 04:33:43;;;;;;;9.10;7.68;;;17.90;81.20;;;;;;5025751;28;20111;-73
2021/06/26 04:36:13;;;;;;;7.90;7.10;;;17.80;81.40;;;;;;5023130;28;20072;-72
2021/06/26 04:38:39;;;;;;;9.70;7.60;;;17.80;81.50;;;;;;5016330;28;20028;-73
2021/06/26 04:41:04;;;;;;;8.75;7.85;;;17.80;81.80;;;;;;5007468;28;20398;-73
2021/06/26 04:43:30;;;;;;;7.88;7.07;;;17.80;81.40;;;;;;4992668;28;20030;-73
2021/06/26 04:45:56;;;;;;;10.18;8.30;;;17.80;81.40;;;;;;5027672;28;20029;-72
2021/06/26 04:48:25;;;;;;;9.70;8.05;;;17.80;81.80;;;;;;5006804;28;20502;-72
2021/06/26 04:50:50;;;;;;;8.27;7.45;;;17.80;82.20;;;;;;5026276;28;20361;-73
2021/06/26 04:53:16;;;;;;;7.70;6.90;;;17.80;82.00;;;;;;5024856;28;20099;-73
2021/06/26 04:55:51;;;;;;;10.10;8.23;;;17.80;81.80;;;;;;5025710;28;20117;-73
2021/06/26 04:58:17;;;;;;;9.32;7.55;;;17.80;82.10;;;;;;5025124;28;20033;-72
2021/06/26 05:00:44;;;;;;;8.35;7.18;;;17.90;82.10;;;;;;5008664;28;20107;-72
2021/06/26 05:03:09;;;;;;;8.05;7.25;;;18.00;82.30;;;;;;5032432;28;20040;-72
2021/06/26 05:05:35;;;;;;;8.15;6.65;;;18.00;82.50;;;;;;5032380;28;20502;-72
2021/06/26 05:08:01;;;;;;;8.75;7.85;;;18.00;82.70;;;;;;5036538;28;20079;-72
2021/06/26 05:10:26;;;;;;;14.25;8.25;;;18.00;82.30;;;;;;5037048;28;20013;-71
2021/06/26 05:12:52;;;;;;;8.75;7.70;;;18.00;81.90;;;;;;5028324;28;21048;-71
2021/06/26 05:15:18;;;;;;;8.70;7.80;;;18.10;81.50;;;;;;5026935;28;20036;-72
2021/06/26 05:17:43;;;;;;;12.07;8.30;;;18.10;81.40;;;;;;5012402;28;20034;-71
2021/06/26 05:20:14;;;;;;;10.48;8.10;;;18.10;81.70;;;;;;5028909;28;20030;-73
2021/06/26 05:22:40;;;;;;;10.43;7.40;;;18.20;81.80;;;;;;5031161;28;20030;-72
2021/06/26 05:25:06;;;;;;;8.32;7.43;;;18.10;81.70;;;;;;5031547;28;20087;-72
2021/06/26 05:27:32;;;;;;;7.70;6.90;;;18.20;81.80;;;;;;5012656;28;20041;-72
2021/06/26 05:29:57;;;;;;;9.88;7.88;;;18.20;81.80;;;;;;5015136;28;20025;-72
2021/06/26 05:32:26;;;;;;;7.43;6.72;;;18.20;81.80;;;;;;5029387;28;20108;-72
2021/06/26 05:34:52;;;;;;;9.20;8.27;;;18.30;82.00;;;;;;5013696;28;20826;-72
2021/06/26 05:37:17;;;;;;;8.77;7.85;;;18.30;81.90;;;;;;5013588;28;20030;-72
2021/06/26 05:39:43;;;;;;;10.23;7.25;;;18.30;82.00;;;;;;5027070;28;20030;-72
2021/06/26 05:42:09;;;;;;;9.93;8.40;;;18.30;82.00;;;;;;5013415;28;20052;-72
2021/06/26 05:44:35;;;;;;;9.68;7.60;;;18.30;82.20;;;;;;5029251;28;20391;-72
2021/06/26 05:47:00;;;;;;;11.98;7.75;;;18.40;82.10;;;;;;5027841;28;20068;-72
2021/06/26 05:49:26;;;;;;;9.20;8.27;;;18.40;81.90;;;;;;5028836;28;20080;-73
2021/06/26 05:51:51;;;;;;;8.48;7.57;;;18.50;81.80;;;;;;5020491;28;20030;-73
2021/06/26 05:54:17;;;;;;;8.50;7.45;;;18.50;81.50;;;;;;5027350;28;20036;-73
2021/06/26 05:56:43;;;;;;;9.52;7.30;;;18.60;81.40;;;;;;5011736;28;20025;-73
2021/06/26 05:59:08;;;;;;;8.25;7.20;;;18.60;81.00;;;;;;5033818;22;20045;-73
2021/06/26 06:01:34;;;;;;;11.10;7.60;;;18.70;81.10;;;;;;5012256;28;20029;-72
2021/06/26 06:04:00;;;;;;;9.13;7.30;;;18.70;80.90;;;;;;5024733;28;20092;-73
2021/06/26 06:06:26;;;;;;;8.23;7.43;;;18.80;80.70;;;;;;5008575;28;20029;-73
2021/06/26 06:08:51;;;;;;;10.57;8.65;;;18.80;80.50;;;;;;5019319;28;20033;-73
2021/06/26 06:11:17;;;;;;;11.73;7.95;;;18.80;79.80;;;;;;5018975;28;20021;-73
2021/06/26 06:13:43;;;;;;;9.07;7.18;;;18.90;79.80;;;;;;5014617;28;20109;-72
2021/06/26 06:16:08;;;;;;;9.07;7.45;;;18.90;79.00;;;;;;5012112;28;20453;-73
2021/06/26 06:18:34;;;;;;;7.38;6.38;;;18.90;78.70;;;;;;5015878;28;20048;-74
2021/06/26 06:21:00;;;;;;;8.48;6.40;;;19.00;78.40;;;;;;5017404;28;20042;-72
2021/06/26 06:23:26;;;;;;;8.68;6.22;;;19.00;76.20;;;;;;5013604;28;20483;-72
2021/06/26 06:25:53;;;;;;;7.25;5.30;;;19.00;74.70;;;;;;5018830;28;20108;-72
2021/06/26 06:28:19;;;;;;;6.00;4.80;;;19.00;73.90;;;;;;5016401;28;20037;-73
2021/06/26 06:30:45;;;;;;;6.05;4.70;;;19.00;73.80;;;;;;5015446;28;20022;-72
2021/06/26 06:33:10;;;;;;;7.82;5.10;;;19.10;73.40;;;;;;5014964;28;20454;-74
2021/06/26 06:35:36;;;;;;;5.97;4.90;;;19.10;73.80;;;;;;5017529;28;20034;-73
2021/06/26 06:38:02;;;;;;;5.80;5.00;;;19.20;74.30;;;;;;5016478;28;20466;-73
2021/06/26 06:40:28;;;;;;;5.82;4.82;;;19.20;75.00;;;;;;5014269;28;20080;-72
2021/06/26 06:42:54;;;;;;;5.05;4.32;;;19.20;75.00;;;;;;5018346;28;20026;-73
2021/06/26 06:45:21;;;;;;;4.88;4.22;;;19.20;75.00;;;;;;5016405;28;20498;-72
2021/06/26 06:47:46;;;;;;;5.93;4.90;;;19.30;74.90;;;;;;5015763;28;20038;-73
2021/06/26 06:50:13;;;;;;;8.80;4.82;;;19.30;74.60;;;;;;5016072;28;20033;-72
2021/06/26 06:52:39;;;;;;;5.40;4.00;;;19.40;74.50;;;;;;5007663;28;20153;-72
2021/06/26 06:55:07;;;;;;;6.38;4.00;;;19.50;74.30;;;;;;4989932;28;20061;-74
2021/06/26 06:57:33;;;;;;;6.65;4.82;;;19.50;73.60;;;;;;5008984;28;20045;-71
2021/06/26 06:59:59;;;;;;;5.80;4.78;;;19.60;73.50;;;;;;5019918;28;20029;-73
2021/06/26 07:02:25;;;;;;;7.38;4.63;;;19.60;72.70;;;;;;5016152;28;20025;-73
2021/06/26 07:04:50;;;;;;;5.22;4.32;;;19.60;73.00;;;;;;5000308;28;20117;-72
2021/06/26 07:07:17;;;;;;;6.45;4.20;;;19.70;72.50;;;;;;5012100;28;20602;-74
2021/06/26 07:09:42;;;;;;;5.72;4.43;;;19.70;71.90;;;;;;5016228;28;20037;-73
2021/06/26 07:12:09;;;;;;;4.75;4.28;;;19.60;71.80;;;;;;5020409;28;20105;-73
2021/06/26 07:14:35;;;;;;;4.38;3.90;;;19.60;72.10;;;;;;5007647;28;20029;-74
2021/06/26 07:17:01;;;;;;;5.70;4.30;;;19.60;72.80;;;;;;5019591;28;20582;-78
2021/06/26 07:19:27;;;;;;;7.53;4.53;;;19.60;73.20;;;;;;5009638;28;20068;-76
2021/06/26 07:21:53;;;;;;;9.38;5.32;;;19.60;73.70;;;;;;4996825;28;20026;-76
2021/06/26 07:24:19;;;;;;;8.15;6.07;;;19.70;73.50;;;;;;5003950;28;20022;-78
2021/06/26 07:26:45;;;;;;;6.65;5.72;;;19.70;73.30;;;;;;5022153;28;20049;-76
2021/06/26 07:29:11;;;;;;;7.10;5.40;;;19.80;72.90;;;;;;5023663;28;20029;-79
2021/06/26 07:31:37;;;;;;;9.13;6.43;;;19.90;73.40;;;;;;5011542;28;20099;-75
2021/06/26 07:34:03;;;;;;;13.07;7.50;;;20.00;73.60;;;;;;5016387;28;20416;-73
2021/06/26 07:36:29;;;;;;;13.15;9.60;;;20.00;73.30;;;;;;5015142;28;20467;-78
2021/06/26 07:38:54;;;;;;;11.23;9.32;;;20.10;72.00;;;;;;5007276;28;20080;-76
2021/06/26 07:41:22;;;;;;;13.38;8.60;;;20.10;71.80;;;;;;5014090;28;20048;-75
2021/06/26 07:43:48;;;;;;;14.88;10.95;;;20.10;72.00;;;;;;4988768;28;20030;-70
2021/06/26 07:46:15;;;;;;;16.40;11.55;;;20.20;71.20;;;;;;5020513;28;20029;-71
2021/06/26 07:48:41;;;;;;;15.63;10.20;;;20.30;69.80;;;;;;5014746;28;20025;-71
2021/06/26 07:51:07;;;;;;;13.80;9.40;;;20.30;70.60;;;;;;5019191;28;20116;-72
2021/06/26 07:53:33;;;;;;;15.27;11.15;;;20.30;71.20;;;;;;5015938;28;20135;-71
2021/06/26 07:55:59;;;;;;;13.15;9.65;;;20.40;69.90;;;;;;5000500;28;20030;-73
2021/06/26 07:58:26;;;;;;;14.77;10.55;;;20.60;71.40;;;;;;5018929;28;20072;-72
2021/06/26 08:00:55;;;;;;;15.73;11.55;;;20.50;71.10;;;;;;5015628;28;20030;-76
2021/06/26 08:03:22;;;;;;;12.63;9.32;;;20.60;70.80;;;;;;5001586;28;20048;-74
2021/06/26 08:05:49;;;;;;;13.98;10.80;;;20.60;72.00;;;;;;5010175;28;20065;-76
2021/06/26 08:08:15;;;;;;;15.70;11.00;;;20.60;72.30;;;;;;5018537;28;20025;-77
2021/06/26 08:10:41;;;;;;;18.45;10.68;;;20.60;72.20;;;;;;5002532;28;20047;-76
2021/06/26 08:13:07;;;;;;;16.50;12.65;;;20.60;72.70;;;;;;5022246;28;20033;-73
2021/06/26 08:15:36;;;;;;;16.77;11.00;;;20.70;72.50;;;;;;5021749;28;20030;-73
2021/06/26 08:18:03;;;;;;;13.23;11.07;;;21.00;70.20;;;;;;5017508;28;20490;-73
2021/06/26 08:20:29;;;;;;;17.88;12.20;;;21.00;71.40;;;;;;5018164;28;20051;-73
2021/06/26 08:22:59;;;;;;;19.13;11.65;;;21.10;70.20;;;;;;5019561;28;20027;-72
2021/06/26 08:25:25;;;;;;;17.73;11.82;;;21.10;70.60;;;;;;5016710;28;20095;-73
2021/06/26 08:27:51;;;;;;;14.93;11.30;;;21.10;70.00;;;;;;5019738;28;20021;-71
2021/06/26 08:30:18;;;;;;;15.38;11.32;;;21.10;70.40;;;;;;5002783;28;20534;-70
2021/06/26 08:32:44;;;;;;;14.75;10.98;;;21.10;71.60;;;;;;5019182;28;20088;-69
2021/06/26 08:35:10;;;;;;;16.20;12.05;;;21.10;71.40;;;;;;5006901;28;20436;-70
2021/06/26 08:37:36;;;;;;;14.40;11.25;;;21.20;70.70;;;;;;5005310;28;20106;-70
2021/06/26 08:40:04;;;;;;;17.25;11.95;;;21.20;70.10;;;;;;5025498;28;20112;-69
2021/06/26 08:42:30;;;;;;;14.05;10.75;;;21.30;68.70;;;;;;5016745;28;20026;-71
2021/06/26 08:45:03;;;;;;;15.18;9.85;;;21.30;69.10;;;;;;5012533;28;20032;-71
2021/06/26 08:47:29;;;;;;;12.57;8.75;;;21.30;69.80;;;;;;5014728;28;20038;-72
2021/06/26 08:49:54;;;;;;;13.98;11.15;;;21.30;69.50;;;;;;5016557;28;20041;-75
2021/06/26 08:52:21;;;;;;;14.82;10.57;;;21.50;68.20;;;;;;5018567;28;20037;-72
2021/06/26 08:54:54;;;;;;;11.85;9.05;;;21.70;68.40;;;;;;5018524;28;20021;-72
2021/06/26 08:57:35;;;;;;;17.13;9.52;;;21.70;68.30;;;;;;5003163;28;20364;-73
2021/06/26 09:00:02;;;;;;;13.02;9.73;;;21.80;68.10;;;;;;5022797;28;20120;-72
2021/06/26 09:02:29;;;;;;;11.02;8.35;;;21.70;70.10;;;;;;5027922;28;20026;-72
2021/06/26 09:04:56;;;;;;;13.85;10.07;;;21.70;70.50;;;;;;5001895;28;20025;-73
2021/06/26 09:07:28;;;;;;;14.85;10.40;;;21.70;69.60;;;;;;5016173;28;20104;-73
2021/06/26 09:09:56;;;;;;;15.00;11.00;;;21.70;68.60;;;;;;5011860;28;20032;-76
2021/06/26 09:12:22;;;;;;;19.42;12.70;;;21.70;67.80;;;;;;4999566;28;20068;-77
2021/06/26 09:14:48;;;;;;;13.77;10.77;;;21.70;68.50;;;;;;4996878;28;20029;-73
2021/06/26 09:17:17;;;;;;;12.32;8.68;;;21.70;68.50;;;;;;5013312;28;20026;-74
2021/06/26 09:19:58;;;;;;;12.02;9.18;;;21.70;68.90;;;;;;5011915;28;20057;-72
2021/06/26 09:22:34;;;;;;;13.50;9.35;;;21.70;69.40;;;;;;5015000;28;20092;-75
2021/06/26 09:25:00;;;;;;;11.68;9.18;;;21.70;69.90;;;;;;5010425;28;20033;-72
2021/06/26 09:27:33;;;;;;;12.88;9.52;;;21.80;70.50;;;;;;5009082;28;20033;-73
2021/06/26 09:29:58;;;;;;;12.20;9.57;;;21.80;70.00;;;;;;5009106;28;20084;-72
2021/06/26 09:32:27;;;;;;;15.13;10.45;;;21.90;69.50;;;;;;5000738;28;20022;-74
2021/06/26 09:34:54;;;;;;;14.00;9.80;;;21.90;67.60;;;;;;5009945;28;20108;-73
2021/06/26 09:37:29;;;;;;;11.98;9.75;;;22.00;66.90;;;;;;5004645;28;20029;-72
2021/06/26 09:39:57;;;;;;;12.40;10.93;;;22.00;67.30;;;;;;5011583;28;20088;-73
2021/06/26 09:42:27;;;;;;;15.35;11.07;;;22.10;65.30;;;;;;4995699;28;20037;-72
2021/06/26 09:45:00;;;;;;;18.90;11.65;;;22.30;64.40;;;;;;5011587;28;20117;-72
2021/06/26 09:47:34;;;;;;;12.32;9.40;;;22.40;64.30;;;;;;4994751;28;20089;-73
2021/06/26 09:50:22;;;;;;;10.80;9.20;;;22.30;66.00;;;;;;5012936;28;20033;-72
2021/06/26 09:53:20;;;;;;;15.80;10.48;;;22.30;67.10;;;;;;5007023;28;20018;-75
2021/06/26 09:55:53;;;;;;;12.52;10.43;;;22.30;66.00;;;;;;4976367;28;20037;-74
2021/06/26 09:58:19;;;;;;;12.95;10.43;;;22.30;67.00;;;;;;5018571;28;20116;-74
2021/06/26 10:00:47;;;;;;;16.63;12.13;;;22.30;66.50;;;;;;5013169;28;20116;-75
2021/06/26 10:03:18;;;;;;;14.75;10.75;;;22.30;65.10;;;;;;5015446;28;20110;-75
2021/06/26 10:05:46;;;;;;;11.45;10.00;;;22.30;65.60;;;;;;5016426;28;20046;-76
2021/06/26 10:08:13;;;;;;;12.88;9.05;;;22.30;65.70;;;;;;5018441;28;20100;-74
2021/06/26 10:10:39;;;;;;;13.05;9.15;;;22.30;65.90;;;;;;5014782;28;20060;-74
2021/06/26 10:13:05;;;;;;;10.30;8.98;;;22.30;66.80;;;;;;5019146;28;20448;-74
2021/06/26 10:15:33;;;;;;;11.00;8.15;;;22.20;68.20;;;;;;5030875;28;20029;-74
2021/06/26 10:17:59;;;;;;;14.68;9.60;;;22.20;68.70;;;;;;5018297;28;20040;-75
2021/06/26 10:20:26;;;;;;;13.02;11.23;;;22.20;68.80;;;;;;5017952;28;20022;-75
2021/06/26 10:22:59;;;;;;;12.88;10.07;;;22.20;67.50;;;;;;5021186;28;20029;-75
2021/06/26 10:25:30;;;;;;;13.80;9.95;;;22.30;67.40;;;;;;5017319;28;20030;-73
2021/06/26 10:28:15;;;;;;;12.30;8.75;;;22.40;66.50;;;;;;5014553;28;20037;-73
2021/06/26 10:30:41;;;;;;;12.40;8.95;;;22.50;66.40;;;;;;5013958;28;20225;-75
2021/06/26 10:33:09;;;;;;;17.83;9.57;;;22.60;65.70;;;;;;5020047;28;20021;-76
2021/06/26 10:35:36;;;;;;;12.57;11.25;;;22.60;66.00;;;;;;5009901;28;20026;-71
2021/06/26 10:38:03;;;;;;;10.90;8.40;;;22.60;65.40;;;;;;5015901;28;20087;-71
2021/06/26 10:40:39;;;;;;;15.82;11.38;;;22.60;66.80;;;;;;5017522;28;20471;-71
2021/06/26 10:43:29;;;;;;;10.85;9.35;;;22.70;65.40;;;;;;5015292;28;20072;-71
2021/06/26 10:46:08;;;;;;;11.82;10.20;;;22.70;65.50;;;;;;5009053;28;20027;-72
2021/06/26 10:48:36;;;;;;;14.63;10.38;;;22.70;65.50;;;;;;5013892;28;20026;-71
2021/06/26 10:51:02;;;;;;;10.32;8.75;;;22.80;65.40;;;;;;5008419;28;20034;-73
2021/06/26 10:53:34;;;;;;;10.20;8.07;;;22.90;65.50;;;;;;4999751;28;20445;-72
2021/06/26 10:56:09;;;;;;;11.02;9.52;;;23.00;66.90;;;;;;5009140;28;20451;-73
2021/06/26 10:58:37;;;;;;;13.38;9.32;;;23.10;67.20;;;;;;5020445;28;20054;-73
2021/06/26 11:01:23;;;;;;;11.43;8.35;;;23.10;66.10;;;;;;4990709;28;20041;-72
2021/06/26 11:03:51;;;;;;;8.60;7.32;;;23.20;66.90;;;;;;5035391;28;20442;-72
2021/06/26 11:06:27;;;;;;;11.07;8.68;;;23.20;65.50;;;;;;5013208;28;20026;-72
2021/06/26 11:08:58;;;;;;;8.85;7.93;;;23.30;65.80;;;;;;5011305;28;20026;-73
2021/06/26 11:11:34;;;;;;;;;;;23.40;65.30;;;;;;5015703;28;20026;-72
2021/06/26 11:14:14;;;;;;;10.18;7.65;;;23.40;65.50;;;;;;5007623;28;20024;-72
2021/06/26 11:16:42;;;;;;;8.65;7.72;;;23.50;64.50;;;;;;5000820;28;20031;-73
2021/06/26 11:19:08;;;;;;;10.38;8.90;;;23.50;64.60;;;;;;4995179;28;20039;-72
2021/06/26 11:21:46;;;;;;;9.52;7.50;;;23.50;63.50;;;;;;4934188;28;20114;-73
2021/06/26 11:24:14;;;;;;;8.93;7.90;;;23.50;64.10;;;;;;4931649;29;20042;-70
2021/06/26 11:26:55;;;;;;;11.23;8.75;;;23.50;65.00;;;;;;5018268;28;20478;-71
2021/06/26 11:29:43;;;;;;;10.50;8.48;;;23.50;63.80;;;;;;4940193;29;20452;-71
2021/06/26 11:32:21;;;;;;;10.05;7.40;;;23.50;63.80;;;;;;4938536;29;20036;-72
2021/06/26 11:35:06;;;;;;;7.38;6.20;;;23.50;64.80;;;;;;4935374;29;20081;-72
2021/06/26 11:37:38;;;;;;;8.07;6.13;;;23.60;65.60;;;;;;4933461;29;20036;-72
2021/06/26 11:40:18;;;;;;;8.45;7.55;;;23.70;65.80;;;;;;5003953;28;20106;-73
2021/06/26 11:42:52;;;;;;;8.75;6.63;;;23.80;63.60;;;;;;4930258;28;20035;-72
2021/06/26 11:45:19;;;;;;;8.52;7.40;;;23.90;64.80;;;;;;4933860;28;20063;-72
2021/06/26 11:47:45;;;;;;;8.23;6.07;;;24.10;63.50;;;;;;4942590;29;20050;-72
2021/06/26 11:50:19;;;;;;;9.20;7.28;;;24.20;63.60;;;;;;4936468;29;20032;-72
2021/06/26 11:52:45;;;;;;;8.48;7.35;;;24.50;61.40;;;;;;4934346;29;20497;-73
2021/06/26 11:55:11;;;;;;;8.73;7.35;;;24.60;60.50;;;;;;4943156;28;20550;-71
2021/06/26 11:57:37;;;;;;;7.90;6.07;;;24.80;60.40;;;;;;5006572;28;20031;-72
2021/06/26 12:00:06;;;;;;;7.82;5.70;;;24.90;60.30;;;;;;4935444;28;20060;-72
2021/06/26 12:02:34;;;;;;;7.30;6.20;;;24.90;60.90;;;;;;4934291;28;20031;-71
2021/06/26 12:05:01;;;;;;;7.07;5.50;;;24.80;60.60;;;;;;4928546;29;20056;-72
2021/06/26 12:07:34;;;;;;;5.75;5.15;;;24.70;60.30;;;;;;4938152;28;20055;-71
2021/06/26 12:10:01;;;;;;;5.60;4.70;;;24.60;60.80;;;;;;4936252;29;20099;-72
2021/06/26 12:12:32;;;;;;;9.80;6.47;;;24.40;62.00;;;;;;4946095;29;20023;-72
2021/06/26 12:14:58;;;;;;;9.95;8.32;;;24.40;63.10;;;;;;4940171;29;20089;-71
2021/06/26 12:17:24;;;;;;;8.43;6.22;;;24.20;62.50;;;;;;4940133;28;20028;-74
2021/06/26 12:22:30;;;;;;;10.55;8.48;;;24.00;65.20;;;;;;4992985;28;20070;-73
2021/06/26 12:25:09;;;;;;;9.20;8.05;;;23.90;64.50;;;;;;4992047;28;20503;-71
2021/06/26 12:27:36;;;;;;;8.45;6.97;;;23.90;64.10;;;;;;4991882;28;20053;-72
2021/06/26 12:30:08;;;;;;;9.05;6.85;;;23.80;64.60;;;;;;4992691;28;20127;-73
2021/06/26 12:32:39;;;;;;;9.55;7.93;;;23.80;64.20;;;;;;4994602;28;20100;-72
2021/06/26 12:35:08;;;;;;;10.57;7.18;;;23.80;63.40;;;;;;4992964;28;20030;-72
2021/06/26 12:37:41;;;;;;;6.68;5.72;;;23.80;63.00;;;;;;4978671;28;20097;-74
2021/06/26 12:40:11;;;;;;;8.70;6.82;;;23.80;64.10;;;;;;4992584;28;20488;-74
2021/06/26 12:42:52;;;;;;;7.53;6.72;;;23.90;64.30;;;;;;4979920;28;20041;-74
2021/06/26 12:45:27;;;;;;;7.47;5.88;;;23.90;63.70;;;;;;4977896;28;20026;-73
2021/06/26 12:48:06;;;;;;;7.75;6.35;;;24.10;64.60;;;;;;4994333;28;20030;-74